createdAt,value
2023-05-20T00:01:21.040Z,0.90
2023-05-20T00:03:49.042Z,0.90
2023-05-20T00:06:18.241Z,1.07
2023-05-20T00:08:45.956Z,1.10
2023-05-20T00:11:13.810Z,1.00
2023-05-20T00:13:41.561Z,1.13
2023-05-20T00:16:09.413Z,1.13
2023-05-20T00:18:37.166Z,1.00
2023-05-20T00:21:05.186Z,0.90
2023-05-20T00:23:34.254Z,1.00
2023-05-20T00:26:01.951Z,0.90
2023-05-20T00:28:30.721Z,0.93
2023-05-20T00:30:58.459Z,1.07
2023-05-20T00:33:26.259Z,1.10
2023-05-20T00:35:53.927Z,1.10
2023-05-20T00:38:21.651Z,0.73
2023-05-20T00:40:50.829Z,1.00
2023-05-20T00:43:20.499Z,1.20
2023-05-20T00:45:48.733Z,0.90
2023-05-20T00:48:16.659Z,0.97
2023-05-20T00:50:44.537Z,1.17
2023-05-20T00:53:12.299Z,1.00
2023-05-20T00:55:40.296Z,0.90
2023-05-20T00:58:09.745Z,0.90
2023-05-20T01:00:37.503Z,0.70
2023-05-20T01:03:06.063Z,0.90
2023-05-20T01:05:34.091Z,0.90
2023-05-20T01:08:02.255Z,0.90
2023-05-20T01:10:32.222Z,1.00
2023-05-20T01:13:04.257Z,0.90
2023-05-20T01:15:34.172Z,1.00
2023-05-20T01:18:05.975Z,1.07
2023-05-20T01:20:34.527Z,1.00
2023-05-20T01:23:04.255Z,0.90
2023-05-20T01:25:32.220Z,1.10
2023-05-20T01:28:00.753Z,1.20
2023-05-20T01:30:35.556Z,0.93
2023-05-20T01:33:08.829Z,1.00
2023-05-20T01:35:37.455Z,1.07
2023-05-20T01:38:07.875Z,0.93
2023-05-20T01:40:36.166Z,1.10
2023-05-20T01:43:04.843Z,1.00
2023-05-20T01:45:32.992Z,0.80
2023-05-20T01:48:01.799Z,1.10
2023-05-20T01:50:29.612Z,1.10
2023-05-20T01:52:57.435Z,1.10
2023-05-20T01:55:27.352Z,1.00
2023-05-20T01:57:55.992Z,1.03
2023-05-20T02:00:23.958Z,1.13
2023-05-20T02:02:51.717Z,1.30
2023-05-20T02:05:19.459Z,1.20
2023-05-20T02:07:47.223Z,1.03
2023-05-20T02:10:15.106Z,1.00
2023-05-20T02:12:44.208Z,1.00
2023-05-20T02:15:12.401Z,0.97
2023-05-20T02:17:40.602Z,1.00
2023-05-20T02:20:10.408Z,0.93
2023-05-20T02:22:38.172Z,1.20
2023-05-20T02:25:06.769Z,1.30
2023-05-20T02:27:34.553Z,1.00
2023-05-20T02:30:03.760Z,1.03
2023-05-20T02:32:31.529Z,1.00
2023-05-20T02:35:00.627Z,1.00
2023-05-20T02:37:29.526Z,1.03
2023-05-20T02:39:57.438Z,1.20
2023-05-20T02:42:25.364Z,1.20
2023-05-20T02:44:56.460Z,0.83
2023-05-20T02:47:26.171Z,1.00
2023-05-20T02:49:53.966Z,1.10
2023-05-20T02:52:22.275Z,1.30
2023-05-20T02:54:50.243Z,1.30
2023-05-20T02:57:17.915Z,1.20
2023-05-20T02:59:46.100Z,1.20
2023-05-20T03:02:14.422Z,1.10
2023-05-20T03:04:44.413Z,1.10
2023-05-20T03:07:12.540Z,0.97
2023-05-20T03:09:40.395Z,1.10
2023-05-20T03:12:08.522Z,1.17
2023-05-20T03:14:36.302Z,1.30
2023-05-20T03:17:04.274Z,1.07
2023-05-20T03:19:32.502Z,1.40
2023-05-20T03:22:01.897Z,1.30
2023-05-20T03:24:30.144Z,1.10
2023-05-20T03:27:00.054Z,1.40
2023-05-20T03:29:27.803Z,1.20
2023-05-20T03:31:55.862Z,1.10
2023-05-20T03:34:23.642Z,1.37
2023-05-20T03:36:52.486Z,1.10
2023-05-20T03:39:21.752Z,1.40
2023-05-20T03:41:49.639Z,1.30
2023-05-20T03:44:17.510Z,1.30
2023-05-20T03:46:45.295Z,1.17
2023-05-20T03:49:14.179Z,1.30
2023-05-20T03:51:42.106Z,1.13
2023-05-20T03:54:13.147Z,1.20
2023-05-20T03:56:43.094Z,1.40
2023-05-20T03:59:11.089Z,1.40
2023-05-20T04:01:39.144Z,1.30
2023-05-20T04:04:07.305Z,1.20
2023-05-20T04:06:36.027Z,1.40
2023-05-20T04:09:04.081Z,1.40
2023-05-20T04:11:31.879Z,1.43
2023-05-20T04:14:01.171Z,1.30
2023-05-20T04:16:29.705Z,1.30
2023-05-20T04:18:59.244Z,1.50
2023-05-20T04:21:27.333Z,1.40
2023-05-20T04:23:55.127Z,1.60
2023-05-20T04:26:22.874Z,1.80
2023-05-20T04:28:51.362Z,1.43
2023-05-20T04:31:20.965Z,1.80
2023-05-20T04:33:48.787Z,1.93
2023-05-20T04:36:17.653Z,1.80
2023-05-20T04:38:46.042Z,1.67
2023-05-20T04:41:15.997Z,1.90
2023-05-20T04:43:45.913Z,2.03
2023-05-20T04:46:14.256Z,2.07
2023-05-20T04:48:44.830Z,1.90
2023-05-20T04:51:14.293Z,1.80
2023-05-20T04:53:43.614Z,2.10
2023-05-20T04:56:13.574Z,2.40
2023-05-20T04:58:50.226Z,2.00
2023-05-20T05:01:18.328Z,2.63
2023-05-20T05:03:47.468Z,2.40
2023-05-20T05:06:15.564Z,2.57
2023-05-20T05:08:43.504Z,2.70
2023-05-20T05:11:11.324Z,2.37
2023-05-20T05:13:39.412Z,2.40
2023-05-20T05:16:07.688Z,2.37
2023-05-20T05:18:36.144Z,2.20
2023-05-20T05:21:06.938Z,2.30
2023-05-20T05:23:36.548Z,1.77
2023-05-20T05:26:04.319Z,1.90
2023-05-20T05:28:32.208Z,1.97
2023-05-20T05:31:02.271Z,2.27
2023-05-20T05:33:31.694Z,2.10
2023-05-20T05:36:04.951Z,2.10
2023-05-20T05:38:34.150Z,1.70
2023-05-20T05:41:01.916Z,2.10
2023-05-20T05:43:30.481Z,2.10
2023-05-20T05:45:59.257Z,2.33
2023-05-20T05:48:27.331Z,2.30
2023-05-20T05:50:55.380Z,2.70
2023-05-20T05:53:23.663Z,2.47
2023-05-20T05:55:52.836Z,2.20
2023-05-20T05:58:20.940Z,2.43
2023-05-20T06:00:51.967Z,1.93
2023-05-20T06:03:19.846Z,2.40
2023-05-20T06:05:48.205Z,2.50
2023-05-20T06:08:17.297Z,2.73
2023-05-20T06:10:48.700Z,2.57
2023-05-20T06:13:18.839Z,2.80
2023-05-20T06:15:47.118Z,3.47
2023-05-20T06:18:14.922Z,2.60
2023-05-20T06:20:43.108Z,2.50
2023-05-20T06:23:10.963Z,2.57
2023-05-20T06:25:51.434Z,2.77
2023-05-20T06:28:21.778Z,2.53
2023-05-20T06:30:49.703Z,2.40
2023-05-20T06:33:20.243Z,2.30
2023-05-20T06:35:48.360Z,2.50
2023-05-20T06:38:16.348Z,2.70
2023-05-20T06:40:45.839Z,2.73
2023-05-20T06:43:13.984Z,2.90
2023-05-20T06:45:51.342Z,3.00
2023-05-20T06:48:24.323Z,2.63
2023-05-20T06:50:52.114Z,2.50
2023-05-20T06:53:19.904Z,2.80
2023-05-20T06:55:47.834Z,2.97
2023-05-20T06:58:15.672Z,2.80
2023-05-20T07:00:44.542Z,3.17
2023-05-20T07:03:15.154Z,2.50
2023-05-20T07:05:42.975Z,2.77
2023-05-20T07:08:12.421Z,2.30
2023-05-20T07:10:40.261Z,2.63
2023-05-20T07:13:07.992Z,2.73
2023-05-20T07:15:36.155Z,2.77
2023-05-20T07:18:04.321Z,2.30
2023-05-20T07:20:34.684Z,2.43
2023-05-20T07:23:06.579Z,2.87
2023-05-20T07:25:42.417Z,2.70
2023-05-20T07:28:10.210Z,2.50
2023-05-20T07:31:00.190Z,2.40
2023-05-20T07:33:33.721Z,2.47
2023-05-20T07:36:20.044Z,2.40
2023-05-20T07:39:12.334Z,2.70
2023-05-20T07:41:54.679Z,2.80
2023-05-20T07:44:45.319Z,2.97
2023-05-20T07:47:20.837Z,3.30
2023-05-20T07:49:53.451Z,2.83
2023-05-20T07:52:41.159Z,2.93
2023-05-20T07:55:16.209Z,3.20
2023-05-20T07:57:44.874Z,3.40
2023-05-20T08:00:13.537Z,3.37
2023-05-20T08:02:45.110Z,3.43
2023-05-20T08:05:18.171Z,3.70
2023-05-20T08:07:48.605Z,4.33
2023-05-20T08:10:18.593Z,3.60
2023-05-20T08:12:48.256Z,3.40
2023-05-20T08:15:16.259Z,4.47
2023-05-20T08:17:44.314Z,4.27
2023-05-20T08:20:13.720Z,4.10
2023-05-20T08:22:41.895Z,3.87
2023-05-20T08:25:11.369Z,4.00
2023-05-20T08:27:39.095Z,3.80
2023-05-20T08:30:09.904Z,3.60
2023-05-20T08:32:37.815Z,3.73
2023-05-20T08:35:06.757Z,3.67
2023-05-20T08:37:34.768Z,3.90
2023-05-20T08:40:02.468Z,3.90
2023-05-20T08:42:31.975Z,4.13
2023-05-20T08:45:02.193Z,3.80
2023-05-20T08:47:31.681Z,3.80
2023-05-20T08:49:59.549Z,3.67
2023-05-20T08:52:28.060Z,3.63
2023-05-20T08:54:56.861Z,3.70
2023-05-20T08:57:25.041Z,3.80
2023-05-20T08:59:54.120Z,4.40
2023-05-20T09:02:22.661Z,4.77
2023-05-20T09:04:50.534Z,4.80
2023-05-20T09:07:27.913Z,4.17
2023-05-20T09:09:55.756Z,4.40
2023-05-20T09:12:23.444Z,4.03
2023-05-20T09:14:51.463Z,4.07
2023-05-20T09:17:22.309Z,3.90
2023-05-20T09:19:50.747Z,4.10
2023-05-20T09:22:23.815Z,3.67
2023-05-20T09:24:52.197Z,4.00
2023-05-20T09:27:20.289Z,3.57
2023-05-20T09:29:48.664Z,3.80
2023-05-20T09:32:17.051Z,4.17
2023-05-20T09:34:48.149Z,4.10
2023-05-20T09:37:19.757Z,3.57
2023-05-20T09:39:53.460Z,3.90
2023-05-20T09:42:26.488Z,3.17
2023-05-20T09:44:55.524Z,3.80
2023-05-20T09:47:25.090Z,3.73
2023-05-20T09:49:54.882Z,4.10
2023-05-20T09:52:23.470Z,3.93
2023-05-20T09:54:52.162Z,3.63
2023-05-20T09:57:19.891Z,3.93
2023-05-20T09:59:48.771Z,3.70
2023-05-20T10:02:16.587Z,4.00
2023-05-20T10:04:51.049Z,3.90
2023-05-20T10:07:53.238Z,3.90
2023-05-20T10:10:30.572Z,3.83
2023-05-20T10:13:12.117Z,4.10
2023-05-20T10:16:03.481Z,4.20
2023-05-20T10:19:01.494Z,5.03
2023-05-20T10:21:30.228Z,4.53
2023-05-20T10:24:08.226Z,5.13
2023-05-20T10:26:48.654Z,5.33
2023-05-20T10:29:28.458Z,4.47
2023-05-20T10:32:03.971Z,4.43
2023-05-20T10:35:04.571Z,4.87
2023-05-20T10:37:43.687Z,4.70
2023-05-20T10:40:18.775Z,4.47
2023-05-20T10:42:50.141Z,4.20
2023-05-20T10:45:39.690Z,4.20
2023-05-20T10:48:37.229Z,4.70
2023-05-20T10:51:11.704Z,3.90
2023-05-20T10:53:44.660Z,3.87
2023-05-20T10:56:25.250Z,4.50
2023-05-20T10:59:02.235Z,4.60
2023-05-20T11:01:39.139Z,4.17
2023-05-20T11:04:08.668Z,4.20
2023-05-20T11:06:40.737Z,3.93
2023-05-20T11:09:17.299Z,3.70
2023-05-20T11:11:51.956Z,4.43
2023-05-20T11:14:23.744Z,4.20
2023-05-20T11:16:58.885Z,4.57
2023-05-20T11:19:29.915Z,4.50
2023-05-20T11:22:08.433Z,4.13
2023-05-20T11:24:40.338Z,4.47
2023-05-20T11:27:09.971Z,4.77
2023-05-20T11:29:43.832Z,4.60
2023-05-20T11:32:21.549Z,4.90
2023-05-20T11:34:58.453Z,4.40
2023-05-20T11:37:36.139Z,4.77
2023-05-20T11:40:09.561Z,4.93
2023-05-20T11:42:55.562Z,4.73
2023-05-20T11:45:27.889Z,4.43
2023-05-20T11:48:04.144Z,4.37
2023-05-20T11:50:42.075Z,4.93
2023-05-20T11:53:21.845Z,4.33
2023-05-20T11:55:58.986Z,3.47
2023-05-20T11:58:36.321Z,4.10
2023-05-20T12:01:21.213Z,4.57
2023-05-20T12:04:21.752Z,5.07
2023-05-20T12:06:56.395Z,4.73
2023-05-20T12:09:28.983Z,4.43
2023-05-20T12:12:02.537Z,4.10
2023-05-20T12:14:35.937Z,4.50
2023-05-20T12:17:07.990Z,4.13
2023-05-20T12:19:36.997Z,4.57
2023-05-20T12:22:14.056Z,4.07
2023-05-20T12:24:45.192Z,3.97
2023-05-20T12:27:38.392Z,4.20
2023-05-20T12:30:13.914Z,4.10
2023-05-20T12:32:50.013Z,4.00
2023-05-20T12:35:39.879Z,4.33
2023-05-20T12:38:20.423Z,3.97
2023-05-20T12:40:55.047Z,4.23
2023-05-20T12:43:29.415Z,4.00
2023-05-20T12:46:04.053Z,3.80
2023-05-20T12:48:49.563Z,4.30
2023-05-20T12:51:26.317Z,3.60
2023-05-20T12:54:03.049Z,3.53
2023-05-20T12:56:34.724Z,3.50
2023-05-20T12:59:05.980Z,3.58
2023-05-20T13:01:44.792Z,3.57
2023-05-20T13:04:17.778Z,3.50
2023-05-20T13:06:57.300Z,3.47
2023-05-20T13:09:33.855Z,3.53
2023-05-20T13:12:05.590Z,3.28
2023-05-20T13:14:42.633Z,3.38
2023-05-20T13:17:22.445Z,3.35
2023-05-20T13:19:53.263Z,3.30
2023-05-20T13:22:28.280Z,3.22
2023-05-20T13:24:56.555Z,3.65
2023-05-20T13:27:28.202Z,3.63
2023-05-20T13:30:08.235Z,3.40
2023-05-20T13:32:37.499Z,3.50
2023-05-20T13:35:05.842Z,3.67
2023-05-20T13:37:33.529Z,3.22
2023-05-20T13:40:01.221Z,3.88
2023-05-20T13:42:29.075Z,3.55
2023-05-20T13:44:57.095Z,3.38
2023-05-20T13:47:25.994Z,3.47
2023-05-20T13:49:55.125Z,3.03
2023-05-20T13:52:22.804Z,3.40
2023-05-20T13:54:50.521Z,3.10
2023-05-20T13:57:18.319Z,2.97
2023-05-20T13:59:46.198Z,3.10
2023-05-20T14:02:14.556Z,2.97
2023-05-20T14:04:44.970Z,3.13
2023-05-20T14:07:14.373Z,2.72
2023-05-20T14:09:45.526Z,3.10
2023-05-20T14:12:13.793Z,2.97
2023-05-20T14:14:41.469Z,2.88
2023-05-20T14:17:09.320Z,3.00
2023-05-20T14:19:37.354Z,3.28
2023-05-20T14:22:05.568Z,3.10
2023-05-20T14:24:34.726Z,3.40
2023-05-20T14:27:02.551Z,3.20
2023-05-20T14:29:30.256Z,2.88
2023-05-20T14:31:58.266Z,3.28
2023-05-20T14:34:26.139Z,3.10
2023-05-20T14:36:54.009Z,2.80
2023-05-20T14:39:22.083Z,3.10
2023-05-20T14:41:51.382Z,3.42
2023-05-20T14:44:19.239Z,3.40
2023-05-20T14:46:49.441Z,3.25
2023-05-20T14:49:17.158Z,3.30
2023-05-20T14:51:44.974Z,3.05
2023-05-20T14:54:14.269Z,3.35
2023-05-20T14:56:43.251Z,2.83
2023-05-20T14:59:12.530Z,3.33
2023-05-20T15:01:40.341Z,3.17
2023-05-20T15:04:08.103Z,2.95
2023-05-20T15:06:37.112Z,3.35
2023-05-20T15:09:06.201Z,3.70
2023-05-20T15:11:34.121Z,3.40
2023-05-20T15:14:02.289Z,3.50
2023-05-20T15:16:31.636Z,3.50
2023-05-20T15:19:01.334Z,3.20
2023-05-20T15:21:29.311Z,3.25
2023-05-20T15:23:57.260Z,3.88
2023-05-20T15:26:25.134Z,3.33
2023-05-20T15:28:52.982Z,3.40
2023-05-20T15:31:21.046Z,3.40
2023-05-20T15:33:50.349Z,3.13
2023-05-20T15:36:18.336Z,2.78
2023-05-20T15:38:46.689Z,3.08
2023-05-20T15:41:14.603Z,3.60
2023-05-20T15:43:42.498Z,3.22
2023-05-20T15:46:10.279Z,3.15
2023-05-20T15:48:39.031Z,3.05
2023-05-20T15:51:08.209Z,3.47
2023-05-20T15:53:36.119Z,3.38
2023-05-20T15:56:05.146Z,3.17
2023-05-20T15:58:33.411Z,5.22
2023-05-20T16:01:01.090Z,6.00
2023-05-20T16:03:30.112Z,5.43
2023-05-20T16:05:57.847Z,6.97
2023-05-20T16:08:29.491Z,6.30
2023-05-20T16:10:57.415Z,5.53
2023-05-20T16:13:25.361Z,5.80
2023-05-20T16:15:57.491Z,4.87
2023-05-20T16:18:25.319Z,4.77
2023-05-20T16:20:53.196Z,4.90
2023-05-20T16:23:21.142Z,4.30
2023-05-20T16:25:50.199Z,4.60
2023-05-20T16:28:17.974Z,4.57
2023-05-20T16:30:45.646Z,4.70
2023-05-20T16:33:13.984Z,5.27
2023-05-20T16:35:41.971Z,5.17
2023-05-20T16:38:10.082Z,4.83
2023-05-20T16:40:37.805Z,4.97
2023-05-20T16:43:06.798Z,5.10
2023-05-20T16:45:34.496Z,4.40
2023-05-20T16:48:02.232Z,5.20
2023-05-20T16:50:30.044Z,5.27
2023-05-20T16:53:00.582Z,4.77
2023-05-20T16:55:28.257Z,4.20
2023-05-20T16:57:56.831Z,3.97
2023-05-20T17:00:26.073Z,4.50
2023-05-20T17:02:54.038Z,4.50
2023-05-20T17:05:21.785Z,4.20
2023-05-20T17:07:51.042Z,4.50
2023-05-20T17:10:19.428Z,4.00
2023-05-20T17:12:47.131Z,4.13
2023-05-20T17:15:14.932Z,4.40
2023-05-20T17:17:44.265Z,4.50
2023-05-20T17:20:13.017Z,4.67
2023-05-20T17:22:40.713Z,4.03
2023-05-20T17:25:09.768Z,4.07
2023-05-20T17:27:37.486Z,3.60
2023-05-20T17:30:06.542Z,4.17
2023-05-20T17:32:34.337Z,3.97
2023-05-20T17:35:03.461Z,3.73
2023-05-20T17:37:31.513Z,4.07
2023-05-20T17:39:59.344Z,4.43
2023-05-20T17:42:27.046Z,3.87
2023-05-20T17:44:54.732Z,3.80
2023-05-20T17:47:22.469Z,4.13
2023-05-20T17:49:50.239Z,4.10
2023-05-20T17:52:19.335Z,4.00
2023-05-20T17:54:47.398Z,3.80
2023-05-20T17:57:16.571Z,3.80
2023-05-20T17:59:45.696Z,3.77
2023-05-20T18:02:13.955Z,3.60
2023-05-20T18:04:41.807Z,3.70
2023-05-20T18:07:09.635Z,3.43
2023-05-20T18:09:39.567Z,3.77
2023-05-20T18:12:08.642Z,3.40
2023-05-20T18:14:36.861Z,3.60
2023-05-20T18:17:04.642Z,3.47
2023-05-20T18:19:33.837Z,3.50
2023-05-20T18:22:02.738Z,3.57
2023-05-20T18:24:30.726Z,3.23
2023-05-20T18:26:59.798Z,3.50
2023-05-20T18:29:27.494Z,3.33
2023-05-20T18:31:55.778Z,3.10
2023-05-20T18:34:24.168Z,3.20
2023-05-20T18:36:52.496Z,2.90
2023-05-20T18:39:21.251Z,2.90
2023-05-20T18:41:49.360Z,2.93
2023-05-20T18:44:19.844Z,2.90
2023-05-20T18:46:47.860Z,3.10
2023-05-20T18:49:15.814Z,3.00
2023-05-20T18:51:44.004Z,2.90
2023-05-20T18:54:11.761Z,3.00
2023-05-20T18:56:39.504Z,2.93
2023-05-20T18:59:07.205Z,3.20
2023-05-20T19:01:36.682Z,2.90
2023-05-20T19:04:04.572Z,3.13
2023-05-20T19:06:35.174Z,3.47
2023-05-20T19:09:03.683Z,3.27
2023-05-20T19:11:32.092Z,3.10
2023-05-20T19:14:00.208Z,2.77
2023-05-20T19:16:28.418Z,2.80
2023-05-20T19:18:57.832Z,2.90
2023-05-20T19:21:25.650Z,2.60
2023-05-20T19:23:53.283Z,3.13
2023-05-20T19:26:21.053Z,3.20
2023-05-20T19:28:48.755Z,2.60
2023-05-20T19:31:21.027Z,2.50
2023-05-20T19:34:00.191Z,2.70
2023-05-20T19:36:42.940Z,2.80
2023-05-20T19:39:14.374Z,2.67
2023-05-20T19:41:51.234Z,2.63
2023-05-20T19:44:22.599Z,2.73
2023-05-20T19:46:57.296Z,2.70
2023-05-20T19:49:27.688Z,2.53
2023-05-20T19:51:59.681Z,2.63
2023-05-20T19:54:27.934Z,2.43
2023-05-20T19:56:55.689Z,3.00
2023-05-20T19:59:23.634Z,2.73
2023-05-20T20:01:52.396Z,2.33
2023-05-20T20:04:20.158Z,2.37
2023-05-20T20:06:48.210Z,2.70
2023-05-20T20:09:17.323Z,2.60
2023-05-20T20:11:45.140Z,2.77
2023-05-20T20:14:13.565Z,2.63
2023-05-20T20:16:41.822Z,2.80
2023-05-20T20:19:11.862Z,2.67
2023-05-20T20:21:40.270Z,2.50
2023-05-20T20:24:08.042Z,2.70
2023-05-20T20:26:37.276Z,2.60
2023-05-20T20:29:04.992Z,2.60
2023-05-20T20:31:32.733Z,2.30
2023-05-20T20:34:00.473Z,2.40
2023-05-20T20:36:31.743Z,2.87
2023-05-20T20:39:02.564Z,2.40
2023-05-20T20:41:30.378Z,2.40
2023-05-20T20:43:59.572Z,2.60
2023-05-20T20:46:28.728Z,2.53
2023-05-20T20:48:56.535Z,2.30
2023-05-20T20:51:24.341Z,2.40
2023-05-20T20:53:52.220Z,2.60
2023-05-20T20:56:19.927Z,2.90
2023-05-20T20:58:47.631Z,2.47
2023-05-20T21:01:17.556Z,2.53
2023-05-20T21:03:45.624Z,2.40
2023-05-20T21:06:14.228Z,2.30
2023-05-20T21:08:42.678Z,2.60
2023-05-20T21:11:10.522Z,2.40
2023-05-20T21:13:39.659Z,2.40
2023-05-20T21:16:07.464Z,2.30
2023-05-20T21:18:36.612Z,2.73
2023-05-20T21:21:05.594Z,2.30
2023-05-20T21:23:33.354Z,2.60
2023-05-20T21:26:01.103Z,2.70
2023-05-20T21:28:28.816Z,2.60
2023-05-20T21:30:56.588Z,2.83
2023-05-20T21:33:24.379Z,2.40
2023-05-20T21:35:53.445Z,2.30
2023-05-20T21:38:21.215Z,2.33
2023-05-20T21:40:49.240Z,2.20
2023-05-20T21:43:17.136Z,2.70
2023-05-20T21:45:45.785Z,2.77
2023-05-20T21:48:13.504Z,2.83
2023-05-20T21:50:41.586Z,2.80
2023-05-20T21:53:10.685Z,2.67
2023-05-20T21:55:38.595Z,2.63
2023-05-20T21:58:06.604Z,2.47
2023-05-20T22:00:35.048Z,2.80
2023-05-20T22:03:02.830Z,2.60
2023-05-20T22:05:30.666Z,3.07
2023-05-20T22:08:00.416Z,2.60
2023-05-20T22:10:29.597Z,2.70
2023-05-20T22:12:58.172Z,2.70
2023-05-20T22:15:26.209Z,2.80
2023-05-20T22:17:54.807Z,2.70
2023-05-20T22:20:22.822Z,2.50
2023-05-20T22:22:50.615Z,2.93
2023-05-20T22:25:18.560Z,3.00
2023-05-20T22:27:48.267Z,2.50
2023-05-20T22:30:16.057Z,2.70
2023-05-20T22:32:44.193Z,2.50
2023-05-20T22:35:13.357Z,2.80
2023-05-20T22:37:41.821Z,3.00
2023-05-20T22:40:10.756Z,2.90
2023-05-20T22:42:38.516Z,2.90
2023-05-20T22:45:08.933Z,2.60
2023-05-20T22:47:36.796Z,2.60
2023-05-20T22:50:05.279Z,2.70
2023-05-20T22:52:33.625Z,2.90
2023-05-20T22:55:01.378Z,2.60
2023-05-20T22:57:29.599Z,2.23
2023-05-20T22:59:57.375Z,2.60
2023-05-20T23:02:26.462Z,2.90
2023-05-20T23:04:54.211Z,2.60
2023-05-20T23:07:22.013Z,2.87
2023-05-20T23:09:49.714Z,2.33
2023-05-20T23:12:17.556Z,2.50
2023-05-20T23:14:45.244Z,2.20
2023-05-20T23:17:13.060Z,2.63
2023-05-20T23:19:42.937Z,2.77
2023-05-20T23:22:10.650Z,2.53
2023-05-20T23:24:38.418Z,2.70
2023-05-20T23:27:06.494Z,3.20
2023-05-20T23:29:34.351Z,3.40
2023-05-20T23:32:02.064Z,3.80
2023-05-20T23:34:30.830Z,3.20
2023-05-20T23:36:59.988Z,3.40
2023-05-20T23:39:27.753Z,3.20
2023-05-20T23:41:55.651Z,2.90
2023-05-20T23:44:23.342Z,3.27
2023-05-20T23:46:51.171Z,3.17
2023-05-20T23:49:24.439Z,2.77
2023-05-20T23:51:52.887Z,2.80
2023-05-20T23:54:22.944Z,2.80
2023-05-20T23:56:50.817Z,3.00
2023-05-20T23:59:18.694Z,3.10
